createdAt,value
2023-11-29T00:00:27.725Z,-5.33
2023-11-29T00:02:55.681Z,-5.37
2023-11-29T00:05:27.146Z,-5.37
2023-11-29T00:08:00.640Z,-5.42
2023-11-29T00:10:28.226Z,-5.41
2023-11-29T00:12:55.934Z,-5.40
2023-11-29T00:15:24.673Z,-5.47
2023-11-29T00:17:52.134Z,-5.38
2023-11-29T00:20:19.559Z,-5.85
2023-11-29T00:22:47.197Z,-5.35
2023-11-29T00:25:14.637Z,-5.59
2023-11-29T00:27:41.868Z,-5.71
2023-11-29T00:30:11.250Z,-5.35
2023-11-29T00:32:38.855Z,-5.33
2023-11-29T00:35:07.050Z,-5.33
2023-11-29T00:37:34.865Z,-5.25
2023-11-29T00:40:02.885Z,-5.17
2023-11-29T00:42:31.532Z,-5.13
2023-11-29T00:44:59.275Z,-5.14
2023-11-29T00:47:26.729Z,-5.11
2023-11-29T00:49:54.061Z,-5.03
2023-11-29T00:52:21.972Z,-5.01
2023-11-29T00:54:49.256Z,-5.03
2023-11-29T00:57:16.802Z,-4.93
2023-11-29T00:59:44.690Z,-5.10
2023-11-29T01:02:12.416Z,-4.86
2023-11-29T01:04:40.169Z,-4.93
2023-11-29T01:07:07.598Z,-4.95
2023-11-29T01:09:35.179Z,-4.86
2023-11-29T01:12:02.611Z,-4.97
2023-11-29T01:14:30.670Z,-5.25
2023-11-29T01:16:58.121Z,-5.10
2023-11-29T01:19:25.384Z,-5.12
2023-11-29T01:21:52.993Z,-5.03
2023-11-29T01:24:20.445Z,-4.96
2023-11-29T01:26:47.940Z,-4.91
2023-11-29T01:29:16.289Z,-5.02
2023-11-29T01:31:43.555Z,-5.04
2023-11-29T01:34:10.895Z,-4.93
2023-11-29T01:36:44.552Z,-4.96
2023-11-29T01:39:15.789Z,-4.93
2023-11-29T01:41:43.299Z,-5.19
2023-11-29T01:44:11.859Z,-5.14
2023-11-29T01:46:40.158Z,-5.38
2023-11-29T01:49:08.484Z,-5.13
2023-11-29T01:51:37.296Z,-5.88
2023-11-29T01:54:05.425Z,-5.29
2023-11-29T01:56:33.250Z,-5.19
2023-11-29T01:59:00.625Z,-5.17
2023-11-29T02:01:28.246Z,-5.23
2023-11-29T02:03:56.588Z,-5.42
2023-11-29T02:06:24.525Z,-5.32
2023-11-29T02:08:52.446Z,-5.37
2023-11-29T02:11:20.846Z,-5.32
2023-11-29T02:13:48.358Z,-5.47
2023-11-29T02:16:16.150Z,-5.53
2023-11-29T02:18:43.762Z,-5.83
2023-11-29T02:21:11.874Z,-5.62
2023-11-29T02:23:53.066Z,-5.63
2023-11-29T02:26:20.762Z,-5.62
2023-11-29T02:28:47.991Z,-5.69
2023-11-29T02:31:15.451Z,-5.53
2023-11-29T02:33:42.896Z,-5.49
2023-11-29T02:36:10.202Z,-5.82
2023-11-29T02:38:37.826Z,-5.48
2023-11-29T02:41:05.656Z,-5.45
2023-11-29T02:43:33.147Z,-5.44
2023-11-29T02:46:00.829Z,-5.42
2023-11-29T02:48:29.059Z,-5.76
2023-11-29T02:50:56.508Z,-5.40
2023-11-29T02:53:24.618Z,-5.77
2023-11-29T02:55:52.027Z,-5.41
2023-11-29T02:58:19.253Z,-5.43
2023-11-29T03:00:46.842Z,-5.55
2023-11-29T03:03:14.545Z,-5.56
2023-11-29T03:05:42.181Z,-6.39
2023-11-29T03:08:09.745Z,-5.67
2023-11-29T03:10:37.413Z,-5.49
2023-11-29T03:13:04.759Z,-5.41
2023-11-29T03:15:32.315Z,-5.45
2023-11-29T03:18:00.425Z,-5.55
2023-11-29T03:20:27.783Z,-5.92
2023-11-29T03:22:55.093Z,-5.68
2023-11-29T03:25:22.713Z,-5.52
2023-11-29T03:27:50.069Z,-5.56
2023-11-29T03:30:17.593Z,-5.63
2023-11-29T03:32:45.070Z,-5.76
2023-11-29T03:35:13.082Z,-5.81
2023-11-29T03:37:40.649Z,-5.91
2023-11-29T03:40:09.061Z,-5.88
2023-11-29T03:42:36.499Z,-5.88
2023-11-29T03:45:04.089Z,-5.84
2023-11-29T03:47:33.481Z,-5.78
2023-11-29T03:50:00.818Z,-6.20
2023-11-29T03:52:28.297Z,-6.02
2023-11-29T03:54:56.148Z,-6.01
2023-11-29T03:57:23.611Z,-6.06
2023-11-29T03:59:51.269Z,-6.06
2023-11-29T04:02:18.894Z,-5.99
2023-11-29T04:04:46.511Z,-5.97
2023-11-29T04:07:14.886Z,-6.00
2023-11-29T04:09:43.443Z,-6.13
2023-11-29T04:12:11.218Z,-5.80
2023-11-29T04:14:38.751Z,-5.92
2023-11-29T04:17:06.721Z,-6.05
2023-11-29T04:19:34.302Z,-6.34
2023-11-29T04:22:01.983Z,-6.19
2023-11-29T04:24:30.472Z,-6.22
2023-11-29T04:26:57.955Z,-6.09
2023-11-29T04:29:26.649Z,-6.36
2023-11-29T04:31:55.082Z,-6.08
2023-11-29T04:34:28.549Z,-6.21
2023-11-29T04:37:04.414Z,-6.20
2023-11-29T04:39:31.811Z,-6.52
2023-11-29T04:41:59.322Z,-6.57
2023-11-29T04:44:29.659Z,-6.30
2023-11-29T04:46:57.189Z,-6.24
2023-11-29T04:49:24.608Z,-6.26
2023-11-29T04:51:52.095Z,-6.38
2023-11-29T04:54:19.432Z,-6.56
2023-11-29T04:56:47.173Z,-6.68
2023-11-29T04:59:15.001Z,-6.78
2023-11-29T05:01:42.619Z,-7.24
2023-11-29T05:04:10.442Z,-7.13
2023-11-29T05:06:38.201Z,-7.19
2023-11-29T05:09:07.718Z,-7.30
2023-11-29T05:11:35.249Z,-7.35
2023-11-29T05:14:04.390Z,-7.37
2023-11-29T05:16:32.016Z,-7.61
2023-11-29T05:18:59.485Z,-7.41
2023-11-29T05:21:28.690Z,-7.40
2023-11-29T05:23:56.214Z,-7.50
2023-11-29T05:26:23.566Z,-7.43
2023-11-29T05:28:51.846Z,-7.43
2023-11-29T05:31:19.775Z,-7.43
2023-11-29T05:33:47.289Z,-7.46
2023-11-29T05:36:15.277Z,-7.51
2023-11-29T05:38:43.747Z,-7.53
2023-11-29T05:41:14.630Z,-7.43
2023-11-29T05:43:42.380Z,-7.44
2023-11-29T05:46:09.847Z,-7.41
2023-11-29T05:48:37.370Z,-7.47
2023-11-29T05:51:06.052Z,-7.37
2023-11-29T05:53:33.586Z,-7.48
2023-11-29T05:56:01.242Z,-7.42
2023-11-29T05:58:29.417Z,-7.46
2023-11-29T06:00:57.142Z,-7.38
2023-11-29T06:03:27.334Z,-7.30
2023-11-29T06:05:55.539Z,-7.36
2023-11-29T06:08:23.161Z,-7.95
2023-11-29T06:10:50.610Z,-7.04
2023-11-29T06:13:21.693Z,-6.90
2023-11-29T06:15:50.779Z,-6.84
2023-11-29T06:18:19.730Z,-6.61
2023-11-29T06:20:47.326Z,-6.44
2023-11-29T06:23:14.914Z,-6.66
2023-11-29T06:25:42.444Z,-6.41
2023-11-29T06:28:09.914Z,-6.29
2023-11-29T06:30:37.695Z,-6.13
2023-11-29T06:33:05.769Z,-6.80
2023-11-29T06:35:33.387Z,-6.18
2023-11-29T06:38:05.898Z,-6.59
2023-11-29T06:40:41.698Z,-6.35
2023-11-29T06:43:14.740Z,-5.99
2023-11-29T06:45:42.503Z,-5.90
2023-11-29T06:48:10.108Z,-6.23
2023-11-29T06:50:37.617Z,-5.97
2023-11-29T06:53:06.079Z,-5.92
2023-11-29T06:55:34.127Z,-6.32
2023-11-29T06:58:08.018Z,-5.73
2023-11-29T07:00:39.900Z,-5.70
2023-11-29T07:03:07.485Z,-6.10
2023-11-29T07:05:35.543Z,-5.73
2023-11-29T07:08:03.291Z,-5.59
2023-11-29T07:10:32.041Z,-5.63
2023-11-29T07:13:00.746Z,-5.75
2023-11-29T07:15:28.317Z,-5.45
2023-11-29T07:17:56.294Z,-5.48
2023-11-29T07:20:30.570Z,-5.40
2023-11-29T07:23:05.685Z,-5.32
2023-11-29T07:25:33.619Z,-5.41
2023-11-29T07:28:00.890Z,-5.39
2023-11-29T07:30:29.238Z,-5.72
2023-11-29T07:32:57.163Z,-5.34
2023-11-29T07:35:24.508Z,-5.43
2023-11-29T07:37:52.223Z,-5.53
2023-11-29T07:40:19.629Z,-5.57
2023-11-29T07:42:47.020Z,-6.18
2023-11-29T07:45:15.458Z,-5.51
2023-11-29T07:47:42.904Z,-5.47
2023-11-29T07:50:10.310Z,-5.34
2023-11-29T07:52:38.781Z,-5.26
2023-11-29T07:55:08.383Z,-5.42
2023-11-29T07:57:35.783Z,-5.26
2023-11-29T08:00:06.827Z,-5.12
2023-11-29T08:02:43.498Z,-5.11
2023-11-29T08:05:11.151Z,-5.09
2023-11-29T08:07:38.693Z,-5.25
2023-11-29T08:10:08.998Z,-5.17
2023-11-29T08:12:37.020Z,-5.20
2023-11-29T08:15:04.888Z,-5.17
2023-11-29T08:17:34.256Z,-5.24
2023-11-29T08:20:02.082Z,-5.68
2023-11-29T08:22:31.574Z,-5.44
2023-11-29T08:24:59.349Z,-5.33
2023-11-29T08:27:26.838Z,-5.30
2023-11-29T08:29:54.391Z,-5.54
2023-11-29T08:32:21.875Z,-5.33
2023-11-29T08:34:49.764Z,-5.30
2023-11-29T08:37:19.223Z,-5.35
2023-11-29T08:39:46.561Z,-5.31
2023-11-29T08:42:15.005Z,-5.28
2023-11-29T08:44:44.966Z,-5.26
2023-11-29T08:47:12.925Z,-5.44
2023-11-29T08:49:40.501Z,-5.21
2023-11-29T08:52:08.318Z,-5.44
2023-11-29T08:54:35.556Z,-5.14
2023-11-29T08:57:04.169Z,-5.10
2023-11-29T08:59:32.710Z,-5.54
2023-11-29T09:02:00.423Z,-5.15
2023-11-29T09:04:28.491Z,-5.29
2023-11-29T09:06:56.166Z,-5.13
2023-11-29T09:09:23.760Z,-5.15
2023-11-29T09:11:52.168Z,-5.18
2023-11-29T09:14:20.461Z,-5.17
2023-11-29T09:16:48.078Z,-5.37
2023-11-29T09:19:18.428Z,-5.14
2023-11-29T09:21:45.865Z,-5.07
2023-11-29T09:24:13.941Z,-5.03
2023-11-29T09:26:42.918Z,-5.03
2023-11-29T09:29:10.832Z,-4.92
2023-11-29T09:31:38.686Z,-4.91
2023-11-29T09:34:06.616Z,-4.91
2023-11-29T09:36:34.441Z,-4.92
2023-11-29T09:39:10.153Z,-4.85
2023-11-29T09:41:38.183Z,-4.91
2023-11-29T09:44:06.730Z,-4.76
2023-11-29T09:46:34.205Z,-4.76
2023-11-29T09:49:03.018Z,-4.85
2023-11-29T09:51:31.026Z,-4.82
2023-11-29T09:53:59.113Z,-5.13
2023-11-29T09:56:29.207Z,-4.77
2023-11-29T09:58:59.738Z,-4.87
2023-11-29T10:01:28.055Z,-5.22
2023-11-29T10:04:07.291Z,-4.84
2023-11-29T10:06:36.408Z,-5.43
2023-11-29T10:09:06.764Z,-4.64
2023-11-29T10:11:34.693Z,-4.52
2023-11-29T10:14:05.812Z,-4.79
2023-11-29T10:16:34.169Z,-4.68
2023-11-29T10:19:03.620Z,-4.64
2023-11-29T10:21:31.656Z,-4.99
2023-11-29T10:23:59.509Z,-4.68
2023-11-29T10:26:29.088Z,-5.30
2023-11-29T10:28:57.229Z,-4.65
2023-11-29T10:31:26.741Z,-4.63
2023-11-29T10:33:55.881Z,-4.93
2023-11-29T10:36:25.114Z,-4.56
2023-11-29T10:38:56.660Z,-4.58
2023-11-29T10:41:25.406Z,-4.62
2023-11-29T10:43:58.197Z,-4.97
2023-11-29T10:46:34.038Z,-4.47
2023-11-29T10:49:16.340Z,-4.43
2023-11-29T10:51:46.956Z,-4.38
2023-11-29T10:54:38.948Z,-4.33
2023-11-29T10:57:06.319Z,-4.26
2023-11-29T10:59:36.646Z,-4.18
2023-11-29T11:02:04.397Z,-4.47
2023-11-29T11:04:33.650Z,-4.61
2023-11-29T11:07:04.629Z,-4.07
2023-11-29T11:09:42.167Z,-3.98
2023-11-29T11:12:09.936Z,-3.94
2023-11-29T11:14:49.022Z,-3.93
2023-11-29T11:17:20.286Z,-3.91
2023-11-29T11:19:48.554Z,-3.86
2023-11-29T11:22:27.298Z,-3.87
2023-11-29T11:24:56.449Z,-3.85
2023-11-29T11:27:38.577Z,-3.78
2023-11-29T11:30:15.135Z,-3.71
2023-11-29T11:32:44.054Z,-3.63
2023-11-29T11:35:26.002Z,-3.72
2023-11-29T11:37:58.423Z,-3.68
2023-11-29T11:40:28.032Z,-3.63
2023-11-29T11:42:56.445Z,-3.65
2023-11-29T11:45:25.036Z,-3.66
2023-11-29T11:47:53.139Z,-3.74
2023-11-29T11:50:20.886Z,-3.95
2023-11-29T11:52:48.359Z,-3.53
2023-11-29T11:55:16.985Z,-4.16
2023-11-29T11:57:46.008Z,-3.58
2023-11-29T12:00:15.525Z,-3.46
2023-11-29T12:02:43.664Z,-3.45
2023-11-29T12:05:11.287Z,-3.52
2023-11-29T12:07:42.583Z,-3.44
2023-11-29T12:10:14.319Z,-3.46
2023-11-29T12:12:45.843Z,-4.05
2023-11-29T12:15:17.444Z,-4.13
2023-11-29T12:17:47.120Z,-3.50
2023-11-29T12:20:15.020Z,-3.52
2023-11-29T12:22:45.827Z,-3.63
2023-11-29T12:25:18.120Z,-3.55
2023-11-29T12:27:47.422Z,-3.82
2023-11-29T12:30:15.600Z,-3.88
2023-11-29T12:32:44.754Z,-3.67
2023-11-29T12:35:17.531Z,-3.47
2023-11-29T12:37:47.838Z,-3.50
2023-11-29T12:40:18.299Z,-3.52
2023-11-29T12:42:47.659Z,-3.53
2023-11-29T12:45:16.582Z,-3.60
2023-11-29T12:47:44.864Z,-3.53
2023-11-29T12:50:13.654Z,-3.58
2023-11-29T12:52:42.121Z,-3.86
2023-11-29T12:55:10.155Z,-3.63
2023-11-29T12:57:37.882Z,-3.53
2023-11-29T13:00:07.017Z,-3.50
2023-11-29T13:02:34.822Z,-3.56
2023-11-29T13:05:02.495Z,-3.58
2023-11-29T13:07:33.652Z,-3.59
2023-11-29T13:10:01.427Z,-3.60
2023-11-29T13:12:31.921Z,-3.64
2023-11-29T13:14:59.611Z,-3.65
2023-11-29T13:17:27.313Z,-3.62
2023-11-29T13:19:54.691Z,-4.03
2023-11-29T13:22:22.271Z,-3.70
2023-11-29T13:24:49.721Z,-3.71
2023-11-29T13:27:17.629Z,-3.83
2023-11-29T13:29:45.144Z,-3.73
2023-11-29T13:32:14.781Z,-3.92
2023-11-29T13:34:42.663Z,-3.98
2023-11-29T13:37:10.539Z,-3.95
2023-11-29T13:39:38.068Z,-3.98
2023-11-29T13:42:05.862Z,-3.99
2023-11-29T13:44:33.903Z,-4.03
2023-11-29T13:47:01.479Z,-4.00
2023-11-29T13:49:29.128Z,-4.02
2023-11-29T13:52:04.651Z,-3.99
2023-11-29T13:54:41.040Z,-3.95
2023-11-29T13:57:08.919Z,-4.00
2023-11-29T13:59:39.277Z,-4.30
2023-11-29T14:02:17.444Z,-4.06
2023-11-29T14:04:47.370Z,-4.08
2023-11-29T14:07:15.050Z,-4.15
2023-11-29T14:09:42.946Z,-4.04
2023-11-29T14:12:10.625Z,-3.95
2023-11-29T14:14:38.779Z,-3.99
2023-11-29T14:17:07.062Z,-3.91
2023-11-29T14:19:34.903Z,-3.88
2023-11-29T14:22:02.769Z,-3.82
2023-11-29T14:24:30.909Z,-3.79
2023-11-29T14:26:59.096Z,-3.77
2023-11-29T14:29:27.638Z,-3.81
2023-11-29T14:31:55.523Z,-3.78
2023-11-29T14:34:22.924Z,-3.79
2023-11-29T14:36:55.443Z,-3.72
2023-11-29T14:39:26.233Z,-3.71
2023-11-29T14:41:54.704Z,-3.69
2023-11-29T14:44:22.737Z,-3.73
2023-11-29T14:46:50.738Z,-3.63
2023-11-29T14:49:26.350Z,-3.63
2023-11-29T14:51:58.060Z,-3.59
2023-11-29T14:54:26.805Z,-3.57
2023-11-29T14:56:54.439Z,-3.59
2023-11-29T14:59:22.062Z,-3.56
2023-11-29T15:01:49.885Z,-3.54
2023-11-29T15:04:17.351Z,-3.54
2023-11-29T15:06:45.016Z,-3.83
2023-11-29T15:09:12.997Z,-3.83
2023-11-29T15:11:40.664Z,-3.91
2023-11-29T15:14:08.581Z,-3.46
2023-11-29T15:16:36.025Z,-4.14
2023-11-29T15:19:04.308Z,-3.83
2023-11-29T15:21:32.703Z,-3.48
2023-11-29T15:24:00.578Z,-3.53
2023-11-29T15:26:28.086Z,-3.49
2023-11-29T15:28:55.818Z,-4.07
2023-11-29T15:31:23.211Z,-3.50
2023-11-29T15:33:50.645Z,-4.09
2023-11-29T15:36:18.575Z,-3.42
2023-11-29T15:38:46.544Z,-3.39
2023-11-29T15:41:14.514Z,-3.43
2023-11-29T15:43:42.548Z,-3.58
2023-11-29T15:46:11.162Z,-3.41
2023-11-29T15:48:38.919Z,-3.69
2023-11-29T15:51:07.019Z,-3.36
2023-11-29T15:53:36.111Z,-3.79
2023-11-29T15:56:06.474Z,-3.41
2023-11-29T15:58:34.538Z,-3.40
2023-11-29T16:01:02.055Z,-3.26
2023-11-29T16:03:30.425Z,-3.25
2023-11-29T16:05:59.864Z,-3.22
2023-11-29T16:08:27.748Z,-3.24
2023-11-29T16:10:55.372Z,-3.20
2023-11-29T16:13:23.076Z,-3.47
2023-11-29T16:15:50.570Z,-3.24
2023-11-29T16:18:18.169Z,-3.39
2023-11-29T16:20:46.041Z,-3.21
2023-11-29T16:23:14.378Z,-3.20
2023-11-29T16:25:41.661Z,-3.11
2023-11-29T16:28:09.864Z,-3.66
2023-11-29T16:30:37.642Z,-3.07
2023-11-29T16:33:06.236Z,-3.04
2023-11-29T16:35:34.177Z,-3.05
2023-11-29T16:38:02.042Z,-3.00
2023-11-29T16:40:29.401Z,-3.10
2023-11-29T16:42:57.108Z,-3.00
2023-11-29T16:45:24.875Z,-4.13
2023-11-29T16:47:52.581Z,-2.87
2023-11-29T16:50:22.147Z,-2.76
2023-11-29T16:52:51.019Z,-2.81
2023-11-29T16:55:18.776Z,-2.99
2023-11-29T16:57:46.718Z,-2.96
2023-11-29T17:00:15.329Z,-2.87
2023-11-29T17:02:42.563Z,-2.89
2023-11-29T17:05:10.429Z,-2.86
2023-11-29T17:07:38.033Z,-2.90
2023-11-29T17:10:06.113Z,-2.80
2023-11-29T17:12:33.956Z,-2.80
2023-11-29T17:15:01.392Z,-2.80
2023-11-29T17:17:31.592Z,-2.81
2023-11-29T17:20:00.602Z,-2.82
2023-11-29T17:22:28.104Z,-2.76
2023-11-29T17:24:55.608Z,-3.13
2023-11-29T17:27:23.566Z,-2.72
2023-11-29T17:29:50.995Z,-2.77
2023-11-29T17:32:18.784Z,-2.82
2023-11-29T17:34:46.807Z,-2.63
2023-11-29T17:37:16.374Z,-2.61
2023-11-29T17:39:44.097Z,-2.59
2023-11-29T17:42:12.043Z,-2.57
2023-11-29T17:44:40.550Z,-2.53
2023-11-29T17:47:08.080Z,-3.26
2023-11-29T17:49:35.448Z,-2.94
2023-11-29T17:52:02.852Z,-2.59
2023-11-29T17:54:30.257Z,-2.57
2023-11-29T17:56:57.984Z,-2.54
2023-11-29T17:59:25.544Z,-2.56
2023-11-29T18:01:53.244Z,-2.84
2023-11-29T18:04:20.964Z,-2.64
2023-11-29T18:06:50.610Z,-2.47
2023-11-29T18:09:18.259Z,-2.45
2023-11-29T18:11:45.946Z,-2.56
2023-11-29T18:14:14.203Z,-2.43
2023-11-29T18:16:42.649Z,-2.82
2023-11-29T18:19:12.974Z,-2.42
2023-11-29T18:21:40.545Z,-2.40
2023-11-29T18:24:08.536Z,-2.38
2023-11-29T18:26:36.106Z,-2.36
2023-11-29T18:29:03.569Z,-3.05
2023-11-29T18:31:30.892Z,-2.34
2023-11-29T18:33:58.398Z,-2.31
2023-11-29T18:36:25.997Z,-2.38
2023-11-29T18:38:58.026Z,-2.17
2023-11-29T18:41:26.461Z,-2.71
2023-11-29T18:43:53.868Z,-2.39
2023-11-29T19:47:27.585Z,-3.18
2023-11-29T19:49:55.639Z,-2.68
2023-11-29T19:52:23.051Z,-2.62
2023-11-29T19:54:51.781Z,-2.59
2023-11-29T19:57:20.528Z,-2.76
2023-11-29T19:59:49.857Z,-2.36
2023-11-29T20:02:17.806Z,-2.33
2023-11-29T20:04:47.726Z,-2.38
2023-11-29T20:07:15.104Z,-2.18
2023-11-29T20:09:42.971Z,-2.45
2023-11-29T20:12:10.374Z,-2.13
2023-11-29T20:14:41.831Z,-2.04
2023-11-29T20:17:11.145Z,-2.07
2023-11-29T20:19:38.565Z,-1.92
2023-11-29T20:22:05.822Z,-1.91
2023-11-29T20:24:33.320Z,-1.87
2023-11-29T20:27:00.829Z,-1.82
2023-11-29T20:29:28.144Z,-1.79
2023-11-29T20:31:55.474Z,-1.82
2023-11-29T20:36:53.659Z,-1.94
2023-11-29T20:39:21.107Z,-1.87
2023-11-29T20:41:50.970Z,-2.10
2023-11-29T20:44:19.131Z,-1.82
2023-11-29T20:46:46.528Z,-1.83
2023-11-29T20:49:14.685Z,-1.93
2023-11-29T20:51:43.228Z,-1.80
2023-11-29T20:54:10.728Z,-1.80
2023-11-29T20:56:38.149Z,-1.98
2023-11-29T20:59:05.397Z,-1.79
2023-11-29T21:01:32.868Z,-1.81
2023-11-29T21:04:01.083Z,-1.80
2023-11-29T21:06:28.487Z,-1.75
2023-11-29T21:08:55.986Z,-1.75
2023-11-29T21:11:23.856Z,-1.88
2023-11-29T21:13:51.424Z,-1.80
2023-11-29T21:16:19.004Z,-1.78
2023-11-29T21:18:46.632Z,-1.78
2023-11-29T21:21:14.378Z,-1.73
2023-11-29T21:23:41.945Z,-1.73
2023-11-29T21:26:09.341Z,-1.83
2023-11-29T21:28:38.670Z,-1.69
2023-11-29T21:31:07.019Z,-1.70
2023-11-29T21:33:35.375Z,-1.71
2023-11-29T21:36:03.276Z,-1.70
2023-11-29T21:38:31.023Z,-1.70
2023-11-29T21:40:58.469Z,-1.67
2023-11-29T21:43:25.854Z,-1.69
2023-11-29T21:45:53.317Z,-1.71
2023-11-29T21:48:20.825Z,-1.66
2023-11-29T21:50:48.952Z,-1.66
2023-11-29T21:53:16.578Z,-1.69
2023-11-29T21:55:44.014Z,-1.68
2023-11-29T21:58:11.396Z,-1.65
2023-11-29T22:00:39.010Z,-1.73
2023-11-29T22:03:07.123Z,-1.83
2023-11-29T22:05:34.493Z,-1.65
2023-11-29T22:08:01.942Z,-1.61
2023-11-29T22:10:30.417Z,-1.83
2023-11-29T22:12:57.721Z,-1.58
2023-11-29T22:15:25.280Z,-1.55
2023-11-29T22:17:52.915Z,-1.90
2023-11-29T22:20:20.427Z,-1.50
2023-11-29T22:22:47.760Z,-1.50
2023-11-29T22:25:16.123Z,-1.86
2023-11-29T22:27:43.693Z,-1.53
2023-11-29T22:30:12.262Z,-1.51
2023-11-29T22:32:42.853Z,-1.56
2023-11-29T22:35:10.496Z,-1.54
2023-11-29T22:37:37.944Z,-1.52
2023-11-29T22:40:07.014Z,-1.52
2023-11-29T22:42:34.354Z,-1.52
2023-11-29T22:45:01.723Z,-1.52
2023-11-29T22:47:31.289Z,-1.50
2023-11-29T22:49:58.653Z,-1.82
2023-11-29T22:52:26.073Z,-1.48
2023-11-29T22:54:53.862Z,-1.47
2023-11-29T22:57:21.212Z,-1.47
2023-11-29T22:59:48.966Z,-1.45
2023-11-29T23:02:16.480Z,-1.44
2023-11-29T23:04:43.825Z,-1.42
2023-11-29T23:07:12.401Z,-1.70
2023-11-29T23:09:41.795Z,-1.39
2023-11-29T23:12:10.021Z,-1.45
2023-11-29T23:14:37.572Z,-1.37
2023-11-29T23:17:05.390Z,-1.69
2023-11-29T23:19:32.740Z,-1.60
2023-11-29T23:22:00.385Z,-1.35
2023-11-29T23:24:28.128Z,-1.63
2023-11-29T23:26:55.802Z,-1.35
2023-11-29T23:29:23.334Z,-1.36
2023-11-29T23:31:50.671Z,-1.35
2023-11-29T23:34:18.314Z,-1.34
2023-11-29T23:36:45.693Z,-1.31
2023-11-29T23:39:13.354Z,-1.41
2023-11-29T23:41:40.700Z,-1.28
2023-11-29T23:44:08.397Z,-1.29
2023-11-29T23:46:35.979Z,-1.62
2023-11-29T23:49:05.277Z,-1.63
2023-11-29T23:51:32.954Z,-1.37
2023-11-29T23:54:00.270Z,-1.56
2023-11-29T23:56:27.804Z,-1.37
2023-11-29T23:58:55.533Z,-1.38
